sensor_id;sensor_type;location;lat;lon;timestamp;pressure;altitude;pressure_sealevel;temperature;humidity
24230;BME280;12362;50.004;8.006;2023-05-16T00:01:17;100326.88;;;13.99;100.00
24230;BME280;12362;50.004;8.006;2023-05-16T00:03:43;100326.34;;;13.94;100.00
24230;BME280;12362;50.004;8.006;2023-05-16T00:06:09;100324.13;;;13.88;100.00
24230;BME280;12362;50.004;8.006;2023-05-16T00:08:35;100320.28;;;13.94;100.00
24230;BME280;12362;50.004;8.006;2023-05-16T00:11:00;100335.97;;;13.80;100.00
24230;BME280;12362;50.004;8.006;2023-05-16T00:13:27;100336.53;;;13.85;100.00
24230;BME280;12362;50.004;8.006;2023-05-16T00:15:54;100327.09;;;13.96;100.00
24230;BME280;12362;50.004;8.006;2023-05-16T00:18:21;100333.91;;;13.85;100.00
24230;BME280;12362;50.004;8.006;2023-05-16T00:20:47;100342.88;;;13.81;100.00
24230;BME280;12362;50.004;8.006;2023-05-16T00:23:13;100338.59;;;13.80;100.00
24230;BME280;12362;50.004;8.006;2023-05-16T00:25:39;100339.91;;;13.73;100.00
24230;BME280;12362;50.004;8.006;2023-05-16T00:28:05;100346.53;;;13.64;100.00
24230;BME280;12362;50.004;8.006;2023-05-16T00:30:31;100352.91;;;13.61;100.00
24230;BME280;12362;50.004;8.006;2023-05-16T00:32:56;100339.00;;;13.60;100.00
24230;BME280;12362;50.004;8.006;2023-05-16T00:35:22;100340.69;;;13.47;100.00
24230;BME280;12362;50.004;8.006;2023-05-16T00:37:49;100339.16;;;13.57;100.00
24230;BME280;12362;50.004;8.006;2023-05-16T00:40:15;100331.38;;;13.43;100.00
24230;BME280;12362;50.004;8.006;2023-05-16T00:42:41;100357.06;;;13.35;100.00
24230;BME280;12362;50.004;8.006;2023-05-16T00:45:07;100335.38;;;13.35;100.00
24230;BME280;12362;50.004;8.006;2023-05-16T00:47:33;100344.25;;;13.32;100.00
24230;BME280;12362;50.004;8.006;2023-05-16T00:49:59;100340.47;;;13.22;100.00
24230;BME280;12362;50.004;8.006;2023-05-16T00:52:25;100354.84;;;13.15;100.00
24230;BME280;12362;50.004;8.006;2023-05-16T00:54:51;100349.44;;;13.18;100.00
24230;BME280;12362;50.004;8.006;2023-05-16T00:57:16;100349.16;;;13.09;100.00
24230;BME280;12362;50.004;8.006;2023-05-16T00:59:44;100341.44;;;13.07;100.00
24230;BME280;12362;50.004;8.006;2023-05-16T01:02:10;100329.97;;;13.10;100.00
24230;BME280;12362;50.004;8.006;2023-05-16T01:04:37;100340.94;;;13.01;100.00
24230;BME280;12362;50.004;8.006;2023-05-16T01:07:03;100347.75;;;13.03;100.00
24230;BME280;12362;50.004;8.006;2023-05-16T01:09:32;100349.59;;;13.01;100.00
24230;BME280;12362;50.004;8.006;2023-05-16T01:12:04;100341.88;;;13.00;100.00
24230;BME280;12362;50.004;8.006;2023-05-16T01:15:01;100349.53;;;12.87;100.00
24230;BME280;12362;50.004;8.006;2023-05-16T01:21:02;100356.03;;;12.80;100.00
24230;BME280;12362;50.004;8.006;2023-05-16T01:26:19;100350.47;;;12.86;100.00
24230;BME280;12362;50.004;8.006;2023-05-16T01:28:47;100360.81;;;12.88;100.00
24230;BME280;12362;50.004;8.006;2023-05-16T01:31:13;100358.66;;;12.80;100.00
24230;BME280;12362;50.004;8.006;2023-05-16T01:33:39;100368.16;;;12.81;100.00
24230;BME280;12362;50.004;8.006;2023-05-16T01:44:35;100378.16;;;12.73;100.00
24230;BME280;12362;50.004;8.006;2023-05-16T01:47:06;100355.00;;;12.83;100.00
24230;BME280;12362;50.004;8.006;2023-05-16T01:49:36;100360.41;;;12.80;100.00
24230;BME280;12362;50.004;8.006;2023-05-16T01:52:12;100354.94;;;12.84;100.00
24230;BME280;12362;50.004;8.006;2023-05-16T01:54:43;100342.44;;;12.75;100.00
24230;BME280;12362;50.004;8.006;2023-05-16T01:57:11;100354.69;;;12.73;100.00
24230;BME280;12362;50.004;8.006;2023-05-16T01:59:37;100353.50;;;12.79;100.00
24230;BME280;12362;50.004;8.006;2023-05-16T02:02:04;100355.66;;;12.72;100.00
24230;BME280;12362;50.004;8.006;2023-05-16T02:04:29;100366.41;;;12.67;100.00
24230;BME280;12362;50.004;8.006;2023-05-16T02:06:55;100358.91;;;12.76;100.00
24230;BME280;12362;50.004;8.006;2023-05-16T02:09:21;100354.25;;;12.81;100.00
24230;BME280;12362;50.004;8.006;2023-05-16T02:11:46;100366.09;;;12.72;100.00
24230;BME280;12362;50.004;8.006;2023-05-16T02:14:12;100363.00;;;12.80;100.00
24230;BME280;12362;50.004;8.006;2023-05-16T02:16:38;100353.59;;;12.77;100.00
24230;BME280;12362;50.004;8.006;2023-05-16T02:19:03;100367.72;;;12.73;100.00
24230;BME280;12362;50.004;8.006;2023-05-16T02:21:29;100375.53;;;12.73;100.00
24230;BME280;12362;50.004;8.006;2023-05-16T02:23:55;100363.22;;;12.77;100.00
24230;BME280;12362;50.004;8.006;2023-05-16T02:26:20;100383.63;;;12.69;100.00
24230;BME280;12362;50.004;8.006;2023-05-16T02:28:46;100362.78;;;12.69;100.00
24230;BME280;12362;50.004;8.006;2023-05-16T02:31:40;100379.34;;;12.68;100.00
24230;BME280;12362;50.004;8.006;2023-05-16T02:34:07;100363.97;;;12.64;100.00
24230;BME280;12362;50.004;8.006;2023-05-16T02:36:32;100362.56;;;12.58;100.00
24230;BME280;12362;50.004;8.006;2023-05-16T02:39:00;100386.88;;;12.59;100.00
24230;BME280;12362;50.004;8.006;2023-05-16T02:41:26;100370.88;;;12.65;100.00
24230;BME280;12362;50.004;8.006;2023-05-16T02:43:52;100378.78;;;12.63;100.00
24230;BME280;12362;50.004;8.006;2023-05-16T02:46:25;100386.22;;;12.55;100.00
24230;BME280;12362;50.004;8.006;2023-05-16T02:48:52;100381.94;;;12.68;100.00
24230;BME280;12362;50.004;8.006;2023-05-16T02:51:23;100379.44;;;12.67;100.00
24230;BME280;12362;50.004;8.006;2023-05-16T02:53:49;100384.34;;;12.57;100.00
24230;BME280;12362;50.004;8.006;2023-05-16T02:56:15;100394.03;;;12.55;100.00
24230;BME280;12362;50.004;8.006;2023-05-16T02:58:41;100378.56;;;12.52;100.00
24230;BME280;12362;50.004;8.006;2023-05-16T03:01:07;100392.56;;;12.50;100.00
24230;BME280;12362;50.004;8.006;2023-05-16T03:03:35;100395.44;;;12.45;100.00
24230;BME280;12362;50.004;8.006;2023-05-16T03:06:01;100396.38;;;12.44;100.00
24230;BME280;12362;50.004;8.006;2023-05-16T03:08:27;100400.59;;;12.47;100.00
24230;BME280;12362;50.004;8.006;2023-05-16T03:10:55;100404.13;;;12.46;100.00
24230;BME280;12362;50.004;8.006;2023-05-16T03:13:20;100397.97;;;12.47;100.00
24230;BME280;12362;50.004;8.006;2023-05-16T03:15:47;100400.91;;;12.41;100.00
24230;BME280;12362;50.004;8.006;2023-05-16T03:18:12;100400.75;;;12.44;100.00
24230;BME280;12362;50.004;8.006;2023-05-16T03:20:38;100394.63;;;12.45;100.00
24230;BME280;12362;50.004;8.006;2023-05-16T03:23:03;100401.56;;;12.44;100.00
24230;BME280;12362;50.004;8.006;2023-05-16T03:25:34;100391.16;;;12.44;100.00
24230;BME280;12362;50.004;8.006;2023-05-16T03:28:07;100401.06;;;12.38;100.00
24230;BME280;12362;50.004;8.006;2023-05-16T03:30:33;100400.25;;;12.37;100.00
24230;BME280;12362;50.004;8.006;2023-05-16T03:32:59;100391.78;;;12.34;100.00
24230;BME280;12362;50.004;8.006;2023-05-16T03:35:25;100400.50;;;12.33;100.00
24230;BME280;12362;50.004;8.006;2023-05-16T03:37:51;100409.25;;;12.32;100.00
24230;BME280;12362;50.004;8.006;2023-05-16T03:40:17;100393.53;;;12.33;100.00
24230;BME280;12362;50.004;8.006;2023-05-16T03:42:42;100394.16;;;12.23;100.00
24230;BME280;12362;50.004;8.006;2023-05-16T03:45:08;100398.50;;;12.22;100.00
24230;BME280;12362;50.004;8.006;2023-05-16T03:47:33;100394.28;;;12.35;100.00
24230;BME280;12362;50.004;8.006;2023-05-16T03:49:59;100401.75;;;12.26;100.00
24230;BME280;12362;50.004;8.006;2023-05-16T03:52:25;100410.34;;;12.28;100.00
24230;BME280;12362;50.004;8.006;2023-05-16T03:54:50;100400.59;;;12.31;100.00
24230;BME280;12362;50.004;8.006;2023-05-16T03:57:16;100406.81;;;12.29;100.00
24230;BME280;12362;50.004;8.006;2023-05-16T03:59:42;100411.19;;;12.28;100.00
24230;BME280;12362;50.004;8.006;2023-05-16T04:02:07;100408.41;;;12.31;100.00
24230;BME280;12362;50.004;8.006;2023-05-16T04:04:33;100404.19;;;12.29;100.00
24230;BME280;12362;50.004;8.006;2023-05-16T04:07:00;100406.38;;;12.36;100.00
24230;BME280;12362;50.004;8.006;2023-05-16T04:09:26;100399.44;;;12.37;100.00
24230;BME280;12362;50.004;8.006;2023-05-16T04:11:51;100401.56;;;12.44;100.00
24230;BME280;12362;50.004;8.006;2023-05-16T04:14:16;100408.66;;;12.42;100.00
24230;BME280;12362;50.004;8.006;2023-05-16T04:16:42;100412.25;;;12.40;100.00
24230;BME280;12362;50.004;8.006;2023-05-16T04:19:08;100423.53;;;12.40;100.00
24230;BME280;12362;50.004;8.006;2023-05-16T04:21:33;100401.00;;;12.39;100.00
24230;BME280;12362;50.004;8.006;2023-05-16T04:24:00;100419.81;;;12.44;100.00
24230;BME280;12362;50.004;8.006;2023-05-16T04:26:26;100414.59;;;12.44;100.00
24230;BME280;12362;50.004;8.006;2023-05-16T04:28:51;100419.31;;;12.38;100.00
24230;BME280;12362;50.004;8.006;2023-05-16T04:31:17;100417.13;;;12.46;100.00
24230;BME280;12362;50.004;8.006;2023-05-16T04:33:42;100410.34;;;12.43;100.00
24230;BME280;12362;50.004;8.006;2023-05-16T04:36:08;100417.47;;;12.40;100.00
24230;BME280;12362;50.004;8.006;2023-05-16T04:38:36;100425.38;;;12.38;100.00
24230;BME280;12362;50.004;8.006;2023-05-16T04:41:02;100425.09;;;12.43;100.00
24230;BME280;12362;50.004;8.006;2023-05-16T04:43:28;100437.47;;;12.39;100.00
24230;BME280;12362;50.004;8.006;2023-05-16T04:45:53;100424.78;;;12.49;100.00
24230;BME280;12362;50.004;8.006;2023-05-16T04:48:19;100447.22;;;12.51;100.00
24230;BME280;12362;50.004;8.006;2023-05-16T04:50:44;100441.06;;;12.52;100.00
24230;BME280;12362;50.004;8.006;2023-05-16T04:53:10;100446.34;;;12.51;100.00
24230;BME280;12362;50.004;8.006;2023-05-16T04:55:35;100448.03;;;12.52;100.00
24230;BME280;12362;50.004;8.006;2023-05-16T04:58:01;100453.50;;;12.47;100.00
24230;BME280;12362;50.004;8.006;2023-05-16T05:00:27;100454.59;;;12.59;100.00
24230;BME280;12362;50.004;8.006;2023-05-16T05:02:53;100443.50;;;12.55;100.00
24230;BME280;12362;50.004;8.006;2023-05-16T05:05:18;100450.38;;;12.56;100.00
24230;BME280;12362;50.004;8.006;2023-05-16T05:07:43;100446.28;;;12.52;100.00
24230;BME280;12362;50.004;8.006;2023-05-16T05:10:09;100447.59;;;12.59;100.00
24230;BME280;12362;50.004;8.006;2023-05-16T05:12:35;100460.66;;;12.44;100.00
24230;BME280;12362;50.004;8.006;2023-05-16T05:15:01;100448.78;;;12.54;100.00
24230;BME280;12362;50.004;8.006;2023-05-16T05:17:27;100451.22;;;12.57;100.00
24230;BME280;12362;50.004;8.006;2023-05-16T05:19:54;100465.50;;;12.50;100.00
24230;BME280;12362;50.004;8.006;2023-05-16T05:22:19;100450.88;;;12.63;100.00
24230;BME280;12362;50.004;8.006;2023-05-16T05:24:45;100471.06;;;12.59;100.00
24230;BME280;12362;50.004;8.006;2023-05-16T05:27:10;100458.78;;;12.61;100.00
24230;BME280;12362;50.004;8.006;2023-05-16T05:29:36;100457.09;;;12.60;100.00
24230;BME280;12362;50.004;8.006;2023-05-16T05:32:01;100466.06;;;12.70;100.00
24230;BME280;12362;50.004;8.006;2023-05-16T05:34:27;100458.53;;;12.96;100.00
24230;BME280;12362;50.004;8.006;2023-05-16T05:36:52;100457.28;;;12.72;100.00
24230;BME280;12362;50.004;8.006;2023-05-16T05:39:18;100463.38;;;12.87;100.00
24230;BME280;12362;50.004;8.006;2023-05-16T05:41:43;100458.69;;;12.93;100.00
24230;BME280;12362;50.004;8.006;2023-05-16T05:44:09;100476.84;;;12.64;100.00
24230;BME280;12362;50.004;8.006;2023-05-16T05:46:34;100472.91;;;12.72;100.00
24230;BME280;12362;50.004;8.006;2023-05-16T05:49:00;100482.47;;;12.72;100.00
24230;BME280;12362;50.004;8.006;2023-05-16T05:51:26;100480.25;;;12.80;100.00
24230;BME280;12362;50.004;8.006;2023-05-16T05:53:52;100488.44;;;12.74;100.00
24230;BME280;12362;50.004;8.006;2023-05-16T05:56:18;100497.44;;;12.68;100.00
24230;BME280;12362;50.004;8.006;2023-05-16T05:58:43;100498.97;;;12.72;100.00
24230;BME280;12362;50.004;8.006;2023-05-16T06:01:10;100482.63;;;12.84;100.00
24230;BME280;12362;50.004;8.006;2023-05-16T06:03:35;100490.88;;;12.77;100.00
24230;BME280;12362;50.004;8.006;2023-05-16T06:06:02;100496.25;;;12.74;100.00
24230;BME280;12362;50.004;8.006;2023-05-16T06:08:28;100493.66;;;12.74;100.00
24230;BME280;12362;50.004;8.006;2023-05-16T06:10:53;100490.63;;;12.81;100.00
24230;BME280;12362;50.004;8.006;2023-05-16T06:13:19;100502.88;;;12.79;100.00
24230;BME280;12362;50.004;8.006;2023-05-16T06:15:51;100505.50;;;12.64;100.00
24230;BME280;12362;50.004;8.006;2023-05-16T06:18:17;100512.41;;;12.65;100.00
24230;BME280;12362;50.004;8.006;2023-05-16T06:20:43;100503.41;;;12.70;100.00
24230;BME280;12362;50.004;8.006;2023-05-16T06:23:08;100510.81;;;12.78;100.00
24230;BME280;12362;50.004;8.006;2023-05-16T06:25:34;100511.38;;;12.68;100.00
24230;BME280;12362;50.004;8.006;2023-05-16T06:27:59;100504.16;;;12.72;100.00
24230;BME280;12362;50.004;8.006;2023-05-16T06:30:25;100519.78;;;12.88;100.00
24230;BME280;12362;50.004;8.006;2023-05-16T06:32:50;100524.34;;;12.84;100.00
24230;BME280;12362;50.004;8.006;2023-05-16T06:35:16;100522.81;;;12.96;100.00
24230;BME280;12362;50.004;8.006;2023-05-16T06:37:41;100516.16;;;13.06;100.00
24230;BME280;12362;50.004;8.006;2023-05-16T06:40:07;100527.44;;;13.06;100.00
24230;BME280;12362;50.004;8.006;2023-05-16T06:42:32;100515.50;;;13.02;100.00
24230;BME280;12362;50.004;8.006;2023-05-16T06:44:58;100538.09;;;12.86;100.00
24230;BME280;12362;50.004;8.006;2023-05-16T06:47:23;100528.78;;;12.98;100.00
24230;BME280;12362;50.004;8.006;2023-05-16T06:49:49;100520.84;;;13.15;100.00
24230;BME280;12362;50.004;8.006;2023-05-16T06:52:15;100542.34;;;12.89;100.00
24230;BME280;12362;50.004;8.006;2023-05-16T06:54:41;100517.84;;;13.07;100.00
24230;BME280;12362;50.004;8.006;2023-05-16T06:57:06;100554.97;;;12.96;100.00
24230;BME280;12362;50.004;8.006;2023-05-16T06:59:33;100537.38;;;12.84;100.00
24230;BME280;12362;50.004;8.006;2023-05-16T07:02:00;100547.59;;;13.03;100.00
24230;BME280;12362;50.004;8.006;2023-05-16T07:04:26;100543.78;;;12.94;100.00
24230;BME280;12362;50.004;8.006;2023-05-16T07:06:52;100556.59;;;12.97;100.00
24230;BME280;12362;50.004;8.006;2023-05-16T07:09:18;100568.16;;;12.93;100.00
24230;BME280;12362;50.004;8.006;2023-05-16T07:11:43;100562.41;;;13.02;100.00
24230;BME280;12362;50.004;8.006;2023-05-16T07:14:09;100573.66;;;13.03;100.00
24230;BME280;12362;50.004;8.006;2023-05-16T07:16:34;100573.31;;;13.24;100.00
24230;BME280;12362;50.004;8.006;2023-05-16T07:19:00;100567.47;;;13.05;100.00
24230;BME280;12362;50.004;8.006;2023-05-16T07:21:26;100589.19;;;12.73;100.00
24230;BME280;12362;50.004;8.006;2023-05-16T07:23:52;100573.38;;;12.93;100.00
24230;BME280;12362;50.004;8.006;2023-05-16T07:26:17;100573.09;;;13.13;100.00
24230;BME280;12362;50.004;8.006;2023-05-16T07:28:43;100584.44;;;12.97;100.00
24230;BME280;12362;50.004;8.006;2023-05-16T07:31:08;100576.38;;;13.01;100.00
24230;BME280;12362;50.004;8.006;2023-05-16T07:33:34;100578.41;;;12.96;100.00
24230;BME280;12362;50.004;8.006;2023-05-16T07:36:00;100583.94;;;12.90;100.00
24230;BME280;12362;50.004;8.006;2023-05-16T07:38:25;100575.75;;;12.66;100.00
24230;BME280;12362;50.004;8.006;2023-05-16T07:40:51;100582.81;;;12.64;100.00
24230;BME280;12362;50.004;8.006;2023-05-16T07:43:17;100592.56;;;12.60;100.00
24230;BME280;12362;50.004;8.006;2023-05-16T07:49:19;100597.53;;;12.65;100.00
24230;BME280;12362;50.004;8.006;2023-05-16T07:51:45;100608.44;;;12.56;100.00
24230;BME280;12362;50.004;8.006;2023-05-16T07:54:11;100604.66;;;12.61;100.00
24230;BME280;12362;50.004;8.006;2023-05-16T07:56:36;100618.72;;;12.74;100.00
24230;BME280;12362;50.004;8.006;2023-05-16T07:59:02;100618.47;;;12.78;100.00
24230;BME280;12362;50.004;8.006;2023-05-16T08:01:30;100621.16;;;12.77;100.00
24230;BME280;12362;50.004;8.006;2023-05-16T08:03:55;100613.91;;;12.67;100.00
24230;BME280;12362;50.004;8.006;2023-05-16T08:06:21;100627.47;;;12.88;100.00
24230;BME280;12362;50.004;8.006;2023-05-16T08:08:46;100632.44;;;12.93;100.00
24230;BME280;12362;50.004;8.006;2023-05-16T08:11:12;100640.00;;;12.97;100.00
24230;BME280;12362;50.004;8.006;2023-05-16T08:13:37;100646.41;;;12.92;100.00
24230;BME280;12362;50.004;8.006;2023-05-16T08:16:03;100654.53;;;12.86;100.00
24230;BME280;12362;50.004;8.006;2023-05-16T08:18:28;100645.16;;;13.14;100.00
24230;BME280;12362;50.004;8.006;2023-05-16T08:20:54;100666.28;;;12.94;100.00
24230;BME280;12362;50.004;8.006;2023-05-16T08:23:19;100678.72;;;13.05;100.00
24230;BME280;12362;50.004;8.006;2023-05-16T08:25:45;100672.25;;;12.96;100.00
24230;BME280;12362;50.004;8.006;2023-05-16T08:28:10;100698.56;;;13.07;100.00
24230;BME280;12362;50.004;8.006;2023-05-16T08:30:36;100694.69;;;13.30;100.00
24230;BME280;12362;50.004;8.006;2023-05-16T08:33:01;100690.91;;;13.20;100.00
24230;BME280;12362;50.004;8.006;2023-05-16T08:35:29;100703.28;;;13.16;100.00
24230;BME280;12362;50.004;8.006;2023-05-16T08:37:55;100706.03;;;13.44;100.00
24230;BME280;12362;50.004;8.006;2023-05-16T08:40:25;100708.09;;;13.39;100.00
24230;BME280;12362;50.004;8.006;2023-05-16T08:42:50;100696.09;;;13.81;100.00
24230;BME280;12362;50.004;8.006;2023-05-16T08:45:16;100707.63;;;14.07;100.00
24230;BME280;12362;50.004;8.006;2023-05-16T08:47:42;100710.72;;;13.84;100.00
24230;BME280;12362;50.004;8.006;2023-05-16T08:50:09;100713.41;;;13.38;100.00
24230;BME280;12362;50.004;8.006;2023-05-16T08:52:36;100718.44;;;13.25;100.00
24230;BME280;12362;50.004;8.006;2023-05-16T08:55:03;100704.97;;;13.48;100.00
24230;BME280;12362;50.004;8.006;2023-05-16T08:57:36;100720.94;;;13.58;100.00
24230;BME280;12362;50.004;8.006;2023-05-16T09:00:02;100725.00;;;13.63;100.00
24230;BME280;12362;50.004;8.006;2023-05-16T09:02:31;100726.91;;;13.44;100.00
24230;BME280;12362;50.004;8.006;2023-05-16T09:05:16;100730.03;;;13.51;100.00
24230;BME280;12362;50.004;8.006;2023-05-16T09:07:43;100742.84;;;13.55;100.00
24230;BME280;12362;50.004;8.006;2023-05-16T09:10:10;100740.47;;;13.66;100.00
24230;BME280;12362;50.004;8.006;2023-05-16T09:12:40;100743.50;;;13.59;100.00
24230;BME280;12362;50.004;8.006;2023-05-16T09:15:09;100754.75;;;13.13;100.00
24230;BME280;12362;50.004;8.006;2023-05-16T09:17:37;100751.56;;;13.39;100.00
24230;BME280;12362;50.004;8.006;2023-05-16T09:20:10;100739.47;;;13.53;100.00
24230;BME280;12362;50.004;8.006;2023-05-16T09:22:36;100742.94;;;13.98;100.00
24230;BME280;12362;50.004;8.006;2023-05-16T09:25:02;100735.41;;;14.23;100.00
24230;BME280;12362;50.004;8.006;2023-05-16T09:27:30;100745.00;;;13.47;100.00
24230;BME280;12362;50.004;8.006;2023-05-16T09:29:57;100763.28;;;13.78;100.00
24230;BME280;12362;50.004;8.006;2023-05-16T09:32:23;100757.88;;;13.19;100.00
24230;BME280;12362;50.004;8.006;2023-05-16T09:34:49;100760.19;;;13.71;100.00
24230;BME280;12362;50.004;8.006;2023-05-16T09:37:17;100748.25;;;13.97;100.00
24230;BME280;12362;50.004;8.006;2023-05-16T09:39:47;100754.91;;;14.02;100.00
24230;BME280;12362;50.004;8.006;2023-05-16T09:42:14;100750.69;;;13.55;100.00
24230;BME280;12362;50.004;8.006;2023-05-16T09:44:40;100747.19;;;13.70;100.00
24230;BME280;12362;50.004;8.006;2023-05-16T09:47:06;100761.78;;;13.59;100.00
24230;BME280;12362;50.004;8.006;2023-05-16T09:49:31;100754.25;;;13.99;100.00
24230;BME280;12362;50.004;8.006;2023-05-16T09:52:04;100763.03;;;13.67;100.00
24230;BME280;12362;50.004;8.006;2023-05-16T09:54:30;100758.91;;;13.78;100.00
24230;BME280;12362;50.004;8.006;2023-05-16T09:56:57;100757.28;;;13.91;100.00
24230;BME280;12362;50.004;8.006;2023-05-16T09:59:23;100769.28;;;14.09;100.00
24230;BME280;12362;50.004;8.006;2023-05-16T10:01:49;100769.25;;;13.64;100.00
24230;BME280;12362;50.004;8.006;2023-05-16T10:04:15;100764.78;;;13.82;100.00
24230;BME280;12362;50.004;8.006;2023-05-16T10:06:41;100757.19;;;14.08;100.00
24230;BME280;12362;50.004;8.006;2023-05-16T10:09:10;100765.34;;;14.18;100.00
24230;BME280;12362;50.004;8.006;2023-05-16T10:11:38;100752.94;;;14.06;100.00
24230;BME280;12362;50.004;8.006;2023-05-16T10:14:06;100759.06;;;14.36;100.00
24230;BME280;12362;50.004;8.006;2023-05-16T10:16:43;100755.47;;;14.52;100.00
24230;BME280;12362;50.004;8.006;2023-05-16T10:19:11;100759.34;;;14.31;100.00
24230;BME280;12362;50.004;8.006;2023-05-16T10:21:38;100766.88;;;14.06;100.00
24230;BME280;12362;50.004;8.006;2023-05-16T10:24:06;100762.19;;;14.11;100.00
24230;BME280;12362;50.004;8.006;2023-05-16T10:26:35;100763.16;;;14.40;100.00
24230;BME280;12362;50.004;8.006;2023-05-16T10:29:01;100750.72;;;14.58;100.00
24230;BME280;12362;50.004;8.006;2023-05-16T10:31:28;100760.44;;;14.98;100.00
24230;BME280;12362;50.004;8.006;2023-05-16T10:33:55;100748.72;;;15.33;90.33
24230;BME280;12362;50.004;8.006;2023-05-16T10:36:22;100760.44;;;15.54;93.51
24230;BME280;12362;50.004;8.006;2023-05-16T10:38:47;100752.28;;;15.85;85.46
24230;BME280;12362;50.004;8.006;2023-05-16T10:41:15;100745.59;;;16.07;79.41
24230;BME280;12362;50.004;8.006;2023-05-16T10:43:43;100739.50;;;16.83;77.66
24230;BME280;12362;50.004;8.006;2023-05-16T10:46:10;100724.25;;;17.25;72.53
24230;BME280;12362;50.004;8.006;2023-05-16T10:48:38;100739.66;;;17.78;71.68
24230;BME280;12362;50.004;8.006;2023-05-16T10:51:35;100724.69;;;18.59;68.13
24230;BME280;12362;50.004;8.006;2023-05-16T10:54:09;100730.19;;;17.99;72.16
24230;BME280;12362;50.004;8.006;2023-05-16T10:56:37;100732.41;;;17.45;74.98
24230;BME280;12362;50.004;8.006;2023-05-16T10:59:02;100725.00;;;17.15;80.10
24230;BME280;12362;50.004;8.006;2023-05-16T11:01:31;100724.84;;;17.77;83.13
24230;BME280;12362;50.004;8.006;2023-05-16T11:17:07;100727.06;;;18.17;70.24
24230;BME280;12362;50.004;8.006;2023-05-16T11:19:43;100712.63;;;18.57;74.84
24230;BME280;12362;50.004;8.006;2023-05-16T11:22:21;100708.94;;;19.47;67.76
24230;BME280;12362;50.004;8.006;2023-05-16T11:27:35;100707.34;;;19.55;62.16
24230;BME280;12362;50.004;8.006;2023-05-16T11:32:33;100704.72;;;18.57;66.01
24230;BME280;12362;50.004;8.006;2023-05-16T11:34:59;100716.50;;;17.83;63.00
24230;BME280;12362;50.004;8.006;2023-05-16T11:37:26;100723.06;;;17.41;65.98
24230;BME280;12362;50.004;8.006;2023-05-16T11:39:52;100717.13;;;18.21;60.24
24230;BME280;12362;50.004;8.006;2023-05-16T11:42:18;100716.03;;;18.12;61.26
24230;BME280;12362;50.004;8.006;2023-05-16T11:44:44;100718.34;;;18.17;63.08
24230;BME280;12362;50.004;8.006;2023-05-16T11:47:10;100714.03;;;18.16;59.74
24230;BME280;12362;50.004;8.006;2023-05-16T11:49:36;100706.84;;;17.83;58.45
24230;BME280;12362;50.004;8.006;2023-05-16T11:52:02;100711.22;;;17.36;64.05
24230;BME280;12362;50.004;8.006;2023-05-16T11:54:28;100704.25;;;18.63;63.20
24230;BME280;12362;50.004;8.006;2023-05-16T11:56:54;100700.56;;;18.98;61.29
24230;BME280;12362;50.004;8.006;2023-05-16T11:59:20;100705.56;;;18.57;62.46
24230;BME280;12362;50.004;8.006;2023-05-16T12:01:46;100694.00;;;19.04;57.13
24230;BME280;12362;50.004;8.006;2023-05-16T12:04:14;100691.31;;;19.47;54.74
24230;BME280;12362;50.004;8.006;2023-05-16T12:06:42;100704.16;;;18.86;57.02
24230;BME280;12362;50.004;8.006;2023-05-16T12:09:13;100699.94;;;19.92;56.00
24230;BME280;12362;50.004;8.006;2023-05-16T12:11:40;100700.63;;;20.05;53.90
24230;BME280;12362;50.004;8.006;2023-05-16T12:14:07;100717.50;;;18.39;53.12
24230;BME280;12362;50.004;8.006;2023-05-16T12:16:34;100727.06;;;18.17;56.73
24230;BME280;12362;50.004;8.006;2023-05-16T12:19:04;100696.84;;;20.59;51.69
24230;BME280;12362;50.004;8.006;2023-05-16T12:21:31;100689.81;;;21.28;51.45
24230;BME280;12362;50.004;8.006;2023-05-16T12:23:57;100701.75;;;19.38;50.43
24230;BME280;12362;50.004;8.006;2023-05-16T12:26:28;100713.22;;;18.60;52.92
24230;BME280;12362;50.004;8.006;2023-05-16T12:28:58;100701.16;;;20.39;50.47
24230;BME280;12362;50.004;8.006;2023-05-16T12:31:27;100686.16;;;20.81;51.25
24230;BME280;12362;50.004;8.006;2023-05-16T12:33:55;100699.63;;;19.74;53.44
24230;BME280;12362;50.004;8.006;2023-05-16T12:36:21;100709.53;;;19.50;55.99
24230;BME280;12362;50.004;8.006;2023-05-16T12:38:48;100696.66;;;21.01;49.89
24230;BME280;12362;50.004;8.006;2023-05-16T12:41:18;100700.78;;;19.81;50.08
24230;BME280;12362;50.004;8.006;2023-05-16T12:43:44;100707.81;;;19.60;52.26
24230;BME280;12362;50.004;8.006;2023-05-16T12:46:10;100712.16;;;18.96;52.17
24230;BME280;12362;50.004;8.006;2023-05-16T12:48:39;100721.75;;;19.18;52.83
24230;BME280;12362;50.004;8.006;2023-05-16T12:51:10;100718.16;;;19.84;51.52
24230;BME280;12362;50.004;8.006;2023-05-16T12:56:07;100684.59;;;22.97;45.44
24230;BME280;12362;50.004;8.006;2023-05-16T12:58:33;100690.34;;;22.37;45.03
24230;BME280;12362;50.004;8.006;2023-05-16T13:00:58;100703.00;;;22.24;45.55
24230;BME280;12362;50.004;8.006;2023-05-16T13:03:24;100701.75;;;21.72;45.92
24230;BME280;12362;50.004;8.006;2023-05-16T13:05:50;100698.13;;;22.39;46.25
24230;BME280;12362;50.004;8.006;2023-05-16T13:08:17;100692.00;;;22.00;45.24
24230;BME280;12362;50.004;8.006;2023-05-16T13:10:42;100692.44;;;21.77;46.51
24230;BME280;12362;50.004;8.006;2023-05-16T13:13:08;100718.81;;;20.08;47.46
24230;BME280;12362;50.004;8.006;2023-05-16T13:15:39;100733.94;;;18.98;49.43
24230;BME280;12362;50.004;8.006;2023-05-16T13:18:36;100714.34;;;20.60;48.16
24230;BME280;12362;50.004;8.006;2023-05-16T13:21:16;100711.69;;;21.49;47.09